Time;durP1;ratioP1;P1;durP2;ratioP2;P2;SDS_P1;SDS_P2;PMS_P1;PMS_P2;Temp;Humidity;BMP_temperature;BMP_pressure;BME280_temperature;BME280_humidity;BME280_pressure;Samples;Min_cycle;Max_cycle;Signal;HPM_P1;HPM_P2
2023/04/20 00:01:00;;;;;;;;;;;11.60;99.60;;;;;;5051336;28;20236;-87
2023/04/20 00:03:27;;;;;;;7.43;3.78;;;11.50;99.90;;;;;;5048764;28;19909;-86
2023/04/20 00:05:53;;;;;;;6.80;3.53;;;11.40;99.90;;;;;;5051006;28;20125;-86
2023/04/20 00:08:18;;;;;;;;;;;11.40;99.90;;;;;;5051978;28;20048;-86
2023/04/20 00:10:44;;;;;;;3.65;2.50;;;11.30;99.90;;;;;;5051419;28;20000;-86
2023/04/20 00:13:10;;;;;;;6.40;4.95;;;11.20;99.90;;;;;;5056633;28;20025;-86
2023/04/20 00:15:36;;;;;;;;;;;11.20;99.90;;;;;;5056627;28;20041;-86
2023/04/20 00:18:01;;;;;;;10.07;5.93;;;11.10;99.90;;;;;;5055009;28;19908;-87
2023/04/20 00:20:27;;;;;;;;;;;11.00;99.90;;;;;;5056529;28;20032;-86
2023/04/20 00:22:53;;;;;;;9.77;6.40;;;10.90;99.90;;;;;;5055359;28;19909;-86
2023/04/20 00:25:19;;;;;;;;;;;10.90;99.90;;;;;;5055866;28;20028;-85
2023/04/20 00:27:44;;;;;;;11.95;5.03;;;10.80;99.90;;;;;;5056349;28;19905;-86
2023/04/20 00:30:10;;;;;;;;;;;10.80;99.90;;;;;;5055866;28;20028;-86
2023/04/20 00:32:36;;;;;;;8.43;4.45;;;10.90;99.90;;;;;;5055068;28;20003;-86
2023/04/20 00:35:01;;;;;;;;;;;10.80;99.90;;;;;;5055677;28;20104;-86
2023/04/20 00:37:27;;;;;;;10.90;5.65;;;10.80;99.90;;;;;;5055275;28;19911;-87
2023/04/20 00:39:53;;;;;;;;;;;10.80;99.90;;;;;;5055526;28;20028;-86
2023/04/20 00:42:19;;;;;;;7.22;4.53;;;10.80;99.90;;;;;;5055057;28;20035;-86
2023/04/20 00:44:44;;;;;;;;;;;10.70;99.90;;;;;;5055288;28;20151;-86
2023/04/20 00:47:10;;;;;;;9.63;4.30;;;10.70;99.90;;;;;;5054980;28;19998;-86
2023/04/20 00:49:36;;;;;;;;;;;10.60;99.90;;;;;;5055291;28;20111;-86
2023/04/20 00:52:01;;;;;;;6.90;4.20;;;10.50;99.90;;;;;;5054460;28;19912;-86
2023/04/20 00:54:27;;;;;;;;;;;10.50;99.90;;;;;;5055223;28;20068;-86
2023/04/20 00:56:54;;;;;;;7.47;4.40;;;10.50;99.90;;;;;;5054823;28;19923;-85
2023/04/20 00:59:20;;;;;;;12.32;4.97;;;10.50;99.90;;;;;;5054582;28;20040;-86
2023/04/20 01:01:46;;;;;;;;;;;10.50;99.90;;;;;;5055928;28;20402;-86
2023/04/20 01:04:12;;;;;;;6.75;4.85;;;10.50;99.90;;;;;;5054294;28;19912;-87
2023/04/20 01:06:38;;;;;;;;;;;10.40;99.90;;;;;;5054551;28;20446;-86
2023/04/20 01:09:03;;;;;;;9.07;5.43;;;10.40;99.90;;;;;;5054564;28;19912;-86
2023/04/20 01:11:29;;;;;;;;;;;10.40;99.90;;;;;;5054072;28;20040;-86
2023/04/20 01:13:55;;;;;;;9.13;4.57;;;10.30;99.90;;;;;;5054265;28;19916;-86
2023/04/20 01:16:21;;;;;;;;;;;10.30;99.90;;;;;;5054698;28;20044;-85
2023/04/20 01:18:49;;;;;;;7.28;4.97;;;10.30;99.90;;;;;;5054733;28;19912;-86
2023/04/20 01:21:20;;;;;;;6.03;4.00;;;10.30;99.90;;;;;;5054333;28;20036;-86
2023/04/20 01:23:46;;;;;;;11.02;5.13;;;10.30;99.90;;;;;;5053745;28;20025;-86
2023/04/20 01:26:13;;;;;;;;;;;10.30;99.90;;;;;;5054718;28;20036;-86
2023/04/20 01:28:39;;;;;;;8.55;4.30;;;10.20;99.90;;;;;;5054352;28;20012;-85
2023/04/20 01:31:05;;;;;;;;;;;10.20;99.90;;;;;;5054849;28;20219;-87
2023/04/20 01:33:31;;;;;;;7.88;4.78;;;10.20;99.90;;;;;;5054409;28;19912;-86
2023/04/20 01:35:57;;;;;;;;;;;10.20;99.90;;;;;;5054539;28;20040;-86
2023/04/20 01:38:24;;;;;;;12.68;4.25;;;10.30;99.90;;;;;;5053922;28;20022;-86
2023/04/20 01:40:50;;;;;;;8.00;4.50;;;10.40;99.90;;;;;;5053946;28;20490;-86
2023/04/20 01:43:17;;;;;;;18.10;5.13;;;10.40;99.90;;;;;;5053837;28;20049;-87
2023/04/20 01:45:42;;;;;;;7.47;4.05;;;10.50;99.90;;;;;;5054041;28;20025;-87
2023/04/20 01:48:08;;;;;;;;;;;10.70;99.90;;;;;;5054326;28;20086;-86
2023/04/20 01:50:33;;;;;;;6.90;4.95;;;10.90;99.90;;;;;;5053530;28;19905;-87
2023/04/20 01:52:59;;;;;;;;;;;11.20;99.90;;;;;;5053963;28;20112;-86
2023/04/20 01:55:25;;;;;;;7.63;4.00;;;11.40;99.90;;;;;;5053301;28;19927;-86
2023/04/20 01:57:50;;;;;;;;;;;11.30;99.90;;;;;;5056217;28;20021;-85
2023/04/20 02:00:16;;;;;;;7.72;4.65;;;11.30;99.90;;;;;;5053676;28;19905;-86
2023/04/20 02:02:42;;;;;;;;;;;11.20;99.90;;;;;;5053872;28;20635;-86
2023/04/20 02:05:08;;;;;;;6.68;4.13;;;11.10;99.90;;;;;;5053442;28;19991;-86
2023/04/20 02:07:34;;;;;;;;;;;10.90;99.90;;;;;;5053754;28;20025;-86
2023/04/20 02:09:59;;;;;;;6.97;4.55;;;10.80;99.90;;;;;;5053206;28;20383;-86
2023/04/20 02:12:25;;;;;;;;;;;10.70;99.90;;;;;;5053810;28;20060;-85
2023/04/20 02:14:51;;;;;;;11.38;4.38;;;10.60;99.90;;;;;;5053215;28;19912;-86
2023/04/20 02:17:16;;;;;;;;;;;10.40;99.90;;;;;;5053452;28;20029;-86
2023/04/20 02:19:42;;;;;;;11.20;4.45;;;10.30;99.90;;;;;;5051340;28;20002;-86
2023/04/20 02:22:08;;;;;;;;;;;10.40;99.90;;;;;;5053866;28;20025;-85
2023/04/20 02:24:34;;;;;;;8.45;4.50;;;10.50;99.90;;;;;;5053212;28;20294;-85
2023/04/20 02:27:00;;;;;;;;;;;10.70;99.90;;;;;;5053699;28;20028;-86
2023/04/20 02:29:25;;;;;;;6.15;4.10;;;10.70;99.90;;;;;;5053255;28;19908;-85
2023/04/20 02:31:51;;;;;;;;;;;10.60;99.90;;;;;;5054358;28;20107;-85
2023/04/20 02:34:17;;;;;;;8.63;5.25;;;10.50;99.90;;;;;;5052270;28;20365;-86
2023/04/20 02:36:42;;;;;;;;;;;10.40;99.90;;;;;;5054042;28;20061;-85
2023/04/20 02:39:09;;;;;;;8.25;4.60;;;10.30;99.90;;;;;;5052772;28;19954;-86
2023/04/20 02:41:34;;;;;;;9.20;4.85;;;10.30;99.90;;;;;;5052428;28;20441;-86
2023/04/20 02:44:00;;;;;;;;;;;10.20;99.90;;;;;;5053138;28;20063;-85
2023/04/20 02:46:26;;;;;;;5.80;3.88;;;10.10;99.90;;;;;;5052672;28;19904;-86
2023/04/20 02:48:51;;;;;;;;;;;10.00;99.90;;;;;;5053158;28;20025;-86
2023/04/20 02:51:17;;;;;;;7.10;4.63;;;10.00;99.90;;;;;;5052611;28;20319;-85
2023/04/20 02:53:42;;;;;;;;;;;10.30;99.90;;;;;;5052795;28;20025;-86
2023/04/20 02:56:08;;;;;;;6.45;3.67;;;10.50;99.90;;;;;;5051420;28;19924;-86
2023/04/20 02:58:33;;;;;;;;;;;10.60;99.90;;;;;;5086766;28;20374;-87
2023/04/20 03:01:00;;;;;;;11.55;5.07;;;10.90;99.90;;;;;;5052402;28;19927;-85
2023/04/20 03:03:29;;;;;;;14.52;5.38;;;10.80;99.90;;;;;;5052704;28;20025;-86
2023/04/20 03:05:55;;;;;;;9.05;5.82;;;10.80;99.90;;;;;;5051849;28;20025;-85
2023/04/20 03:08:21;;;;;;;;;;;10.60;99.90;;;;;;5052507;28;20639;-85
2023/04/20 03:10:47;;;;;;;8.35;5.25;;;10.40;99.90;;;;;;5052237;28;19904;-85
2023/04/20 03:13:12;;;;;;;;;;;10.30;99.90;;;;;;5052588;28;20021;-86
2023/04/20 03:15:38;;;;;;;8.07;4.63;;;10.20;99.90;;;;;;5052480;28;19923;-86
2023/04/20 03:18:03;;;;;;;;;;;10.00;99.90;;;;;;5053636;28;20115;-86
2023/04/20 03:20:29;;;;;;;8.27;4.40;;;9.90;99.90;;;;;;5052489;28;20280;-86
2023/04/20 03:22:55;;;;;;;;;;;9.80;99.90;;;;;;5052471;28;20021;-86
2023/04/20 03:25:21;;;;;;;6.90;4.53;;;9.70;99.90;;;;;;5052220;28;19905;-86
2023/04/20 03:27:47;;;;;;;9.55;5.80;;;9.60;99.90;;;;;;5051886;28;20071;-86
2023/04/20 03:30:13;;;;;;;;;;;9.50;99.90;;;;;;5053286;28;20029;-85
2023/04/20 03:32:40;;;;;;;7.13;4.80;;;9.50;99.90;;;;;;5051930;28;20370;-86
2023/04/20 03:35:07;;;;;;;7.50;4.55;;;9.40;99.90;;;;;;5052049;28;20040;-86
2023/04/20 03:37:33;;;;;;;5.53;3.95;;;9.40;99.90;;;;;;5052293;28;20033;-87
2023/04/20 03:39:59;;;;;;;7.18;4.75;;;9.30;99.90;;;;;;5051853;28;20051;-85
2023/04/20 03:42:24;;;;;;;;;;;9.30;99.90;;;;;;5052220;28;20119;-86
2023/04/20 03:44:50;;;;;;;7.07;4.82;;;9.20;99.90;;;;;;5051714;28;19912;-85
2023/04/20 03:47:16;;;;;;;;;;;9.20;99.90;;;;;;5051928;28;20607;-86
2023/04/20 03:49:41;;;;;;;9.00;5.85;;;9.20;99.90;;;;;;5051444;28;19916;-85
2023/04/20 03:52:07;;;;;;;;;;;9.20;99.90;;;;;;5052037;28;20033;-86
2023/04/20 03:54:32;;;;;;;11.90;5.93;;;9.10;99.90;;;;;;5051427;28;20007;-86
2023/04/20 03:56:59;;;;;;;10.73;5.93;;;9.10;99.90;;;;;;5051640;28;20058;-85
2023/04/20 03:59:25;;;;;;;;;;;9.10;99.90;;;;;;5051765;28;20033;-86
2023/04/20 04:01:51;;;;;;;10.50;5.45;;;9.10;99.90;;;;;;5055077;28;19912;-86
2023/04/20 04:04:16;;;;;;;;;;;9.10;99.90;;;;;;5052104;28;20029;-85
2023/04/20 04:06:42;;;;;;;9.68;5.40;;;9.10;99.90;;;;;;5051083;28;19904;-86
2023/04/20 04:09:08;;;;;;;;;;;9.10;99.90;;;;;;5051629;28;20017;-86
2023/04/20 04:11:33;;;;;;;9.68;5.80;;;9.20;99.90;;;;;;5050244;28;20000;-85
2023/04/20 04:13:59;;;;;;;;;;;9.20;99.90;;;;;;5049769;28;20031;-85
2023/04/20 04:16:24;;;;;;;8.75;5.68;;;9.30;99.90;;;;;;5051155;28;19913;-86
2023/04/20 04:18:50;;;;;;;;;;;9.30;99.90;;;;;;5051251;28;20017;-86
2023/04/20 04:21:16;;;;;;;7.20;4.93;;;9.40;99.90;;;;;;5051286;28;20353;-86
2023/04/20 04:23:41;;;;;;;;;;;9.50;99.90;;;;;;5051431;28;20119;-86
2023/04/20 04:26:08;;;;;;;9.07;4.78;;;9.60;99.90;;;;;;5051084;28;19939;-86
2023/04/20 04:28:34;;;;;;;9.02;5.78;;;9.70;99.90;;;;;;5049998;28;20028;-86
2023/04/20 04:31:00;;;;;;;;;;;9.90;99.90;;;;;;5050115;28;20021;-86
2023/04/20 04:33:26;;;;;;;10.68;6.10;;;10.20;99.90;;;;;;5050804;28;20380;-86
2023/04/20 04:35:52;;;;;;;8.73;5.95;;;10.50;99.90;;;;;;5049791;28;20041;-85
2023/04/20 04:38:17;;;;;;;;;;;10.80;99.90;;;;;;5048921;28;20075;-85
2023/04/20 04:40:44;;;;;;;10.95;5.93;;;11.20;99.90;;;;;;5049001;28;19919;-85
2023/04/20 04:43:10;;;;;;;11.82;5.97;;;11.50;99.90;;;;;;5049927;28;20025;-85
2023/04/20 04:45:37;;;;;;;;;;;11.90;99.90;;;;;;5050829;28;20048;-86
2023/04/20 04:48:03;;;;;;;11.50;5.18;;;12.20;99.90;;;;;;5049875;28;19909;-85
2023/04/20 04:50:28;;;;;;;;;;;12.30;99.90;;;;;;5051218;28;20148;-86
2023/04/20 04:52:54;;;;;;;8.48;5.63;;;12.20;99.90;;;;;;5050669;28;19905;-86
2023/04/20 04:55:19;;;;;;;;;;;12.10;99.90;;;;;;5050993;28;20041;-85
2023/04/20 04:57:45;;;;;;;11.07;5.47;;;12.20;99.90;;;;;;5050764;28;19909;-85
2023/04/20 05:00:11;;;;;;;;;;;12.00;99.90;;;;;;5054414;28;20502;-85
2023/04/20 05:02:37;;;;;;;8.57;5.32;;;12.00;99.90;;;;;;5053514;28;20285;-84
2023/04/20 05:05:03;;;;;;;;;;;11.90;99.90;;;;;;5088011;28;20025;-86
2023/04/20 05:07:28;;;;;;;7.07;4.28;;;12.00;99.90;;;;;;5053583;28;20393;-85
2023/04/20 05:09:54;;;;;;;;;;;12.10;98.30;;;;;;5054703;28;20123;-85
2023/04/20 05:12:20;;;;;;;8.60;4.70;;;12.30;96.70;;;;;;5053790;28;19919;-85
2023/04/20 05:14:45;;;;;;;;;;;12.40;95.10;;;;;;5054042;28;20033;-86
2023/04/20 05:17:11;;;;;;;9.32;4.82;;;12.50;94.50;;;;;;5053833;28;19911;-87
2023/04/20 05:19:36;;;;;;;;;;;12.50;93.90;;;;;;5054117;28;20032;-87
2023/04/20 05:22:03;;;;;;;9.32;4.43;;;12.60;92.90;;;;;;5052449;28;19909;-86
2023/04/20 05:24:29;;;;;;;7.00;4.47;;;12.60;92.80;;;;;;5054433;28;20075;-91
2023/04/20 05:26:54;;;;;;;;;;;12.60;93.50;;;;;;5054345;28;20025;-86
2023/04/20 05:29:20;;;;;;;6.85;4.55;;;12.50;93.90;;;;;;5054154;28;19959;-86
2023/04/20 05:31:46;;;;;;;;;;;12.60;93.20;;;;;;5054198;28;20039;-87
2023/04/20 05:34:11;;;;;;;9.32;4.38;;;12.50;93.60;;;;;;5053784;28;19909;-86
2023/04/20 05:36:38;;;;;;;;;;;12.60;95.80;;;;;;5054138;28;20033;-86
2023/04/20 05:39:04;;;;;;;12.25;5.53;;;12.50;96.30;;;;;;5053981;28;19904;-87
2023/04/20 05:41:30;;;;;;;8.50;4.70;;;12.70;95.40;;;;;;5053559;28;20021;-87
2023/04/20 05:43:56;;;;;;;;;;;12.80;91.50;;;;;;5053912;28;20036;-87
2023/04/20 05:46:22;;;;;;;9.10;4.30;;;12.90;87.90;;;;;;5053432;28;19909;-87
2023/04/20 05:48:48;;;;;;;6.65;4.53;;;13.00;90.90;;;;;;5052160;28;20557;-86
2023/04/20 05:51:14;;;;;;;8.43;3.40;;;13.50;89.90;;;;;;5053381;28;20028;-87
2023/04/20 05:53:40;;;;;;;5.60;3.63;;;14.10;83.80;;;;;;5051765;28;20490;-85
2023/04/20 05:56:07;;;;;;;10.15;3.72;;;14.90;76.80;;;;;;5052038;28;20055;-86
2023/04/20 05:58:34;;;;;;;5.07;2.70;;;15.60;73.10;;;;;;5053788;28;20108;-85
2023/04/20 06:01:02;;;;;;;5.32;3.20;;;16.40;67.90;;;;;;5050688;28;20033;-82
2023/04/20 06:03:27;;;;;;;7.13;3.75;;;17.10;62.70;;;;;;5052394;28;20406;-83
2023/04/20 06:05:53;;;;;;;6.55;3.15;;;17.70;61.20;;;;;;5053710;28;20021;-83
2023/04/20 06:08:19;;;;;;;7.70;3.50;;;18.40;58.20;;;;;;5050862;28;20029;-85
2023/04/20 06:10:44;;;;;;;9.85;3.22;;;18.80;56.80;;;;;;5051772;28;20038;-86
2023/04/20 06:13:10;;;;;;;4.65;3.13;;;19.40;55.80;;;;;;5052946;28;20095;-85
2023/04/20 06:15:36;;;;;;;7.65;3.22;;;20.20;52.80;;;;;;5053098;28;20145;-86
2023/04/20 06:18:02;;;;;;;5.70;3.33;;;20.40;51.20;;;;;;5053076;28;20805;-86
2023/04/20 06:20:27;;;;;;;5.10;3.10;;;20.50;51.00;;;;;;5052846;28;20035;-85
2023/04/20 06:22:53;;;;;;;5.90;2.58;;;20.90;49.70;;;;;;5054177;28;20021;-85
2023/04/20 06:25:19;;;;;;;6.18;2.90;;;21.30;46.90;;;;;;5051168;28;20048;-85
2023/04/20 06:27:45;;;;;;;4.05;2.78;;;20.70;46.90;;;;;;5052830;28;20037;-85
2023/04/20 06:30:11;;;;;;;6.72;2.83;;;20.60;46.00;;;;;;5052927;28;20108;-85
2023/04/20 06:32:37;;;;;;;3.45;2.47;;;20.60;46.80;;;;;;5052353;28;20056;-85
2023/04/20 06:35:03;;;;;;;5.57;2.40;;;21.10;45.90;;;;;;5052378;28;20056;-86
2023/04/20 06:37:29;;;;;;;6.43;2.35;;;21.40;45.30;;;;;;5052455;28;20056;-85
2023/04/20 06:39:54;;;;;;;4.90;3.03;;;21.80;44.90;;;;;;5051393;28;20478;-86
2023/04/20 06:42:21;;;;;;;5.85;2.88;;;21.80;42.50;;;;;;5051461;28;20033;-83
2023/04/20 06:44:46;;;;;;;7.65;2.70;;;22.10;43.20;;;;;;5051888;28;20021;-85
2023/04/20 06:47:12;;;;;;;4.03;2.47;;;21.70;43.60;;;;;;5050845;28;20040;-85
2023/04/20 06:49:38;;;;;;;4.88;2.70;;;21.90;44.10;;;;;;5051780;28;20025;-86
2023/04/20 06:52:04;;;;;;;4.82;2.42;;;22.50;41.90;;;;;;5052408;28;20025;-85
2023/04/20 06:54:31;;;;;;;6.15;2.10;;;22.90;40.80;;;;;;5049469;28;20159;-84
2023/04/20 06:56:56;;;;;;;6.88;2.50;;;22.60;40.60;;;;;;5083100;28;20040;-84
2023/04/20 06:59:22;;;;;;;3.95;1.98;;;22.10;42.60;;;;;;5049231;28;20497;-82
2023/04/20 07:01:48;;;;;;;6.53;1.73;;;22.70;40.50;;;;;;5050440;28;20028;-84
2023/04/20 07:04:13;;;;;;;4.97;2.00;;;22.40;40.20;;;;;;5050277;28;20029;-82
2023/04/20 07:06:39;;;;;;;4.40;1.67;;;22.10;41.50;;;;;;5050072;28;20017;-83
2023/04/20 07:09:05;;;;;;;5.10;2.13;;;22.10;41.20;;;;;;5049859;28;20025;-84
2023/04/20 07:11:31;;;;;;;3.80;1.88;;;22.10;41.50;;;;;;5049727;28;20028;-84
2023/04/20 07:13:56;;;;;;;8.73;2.15;;;22.20;40.40;;;;;;5050986;28;20098;-83
2023/04/20 07:16:22;;;;;;;5.10;1.95;;;22.00;40.70;;;;;;5049260;28;20051;-89
2023/04/20 07:18:48;;;;;;;8.27;2.03;;;21.80;42.10;;;;;;5050539;28;20025;-88
2023/04/20 07:21:14;;;;;;;4.03;2.03;;;21.70;41.80;;;;;;5049842;28;20055;-88
2023/04/20 07:23:40;;;;;;;5.22;1.85;;;21.70;42.20;;;;;;5049934;28;20025;-87
2023/04/20 07:26:06;;;;;;;4.18;1.98;;;21.80;41.50;;;;;;5050118;28;20025;-87
2023/04/20 07:28:32;;;;;;;3.08;1.90;;;21.80;42.20;;;;;;5052815;28;20033;-86
2023/04/20 07:30:58;;;;;;;5.97;2.10;;;21.90;41.70;;;;;;5050175;28;20044;-87
2023/04/20 07:33:24;;;;;;;7.53;1.92;;;21.90;40.90;;;;;;5051371;28;20111;-85
2023/04/20 07:35:50;;;;;;;5.07;2.20;;;21.90;41.40;;;;;;5049484;28;20079;-84
2023/04/20 07:38:16;;;;;;;3.30;1.70;;;22.00;41.60;;;;;;5051000;28;20025;-86
2023/04/20 07:40:42;;;;;;;4.10;2.25;;;22.30;41.90;;;;;;5049579;28;20039;-86
2023/04/20 07:43:07;;;;;;;6.70;2.10;;;21.60;42.20;;;;;;5049037;28;20024;-85
2023/04/20 07:45:33;;;;;;;4.20;2.00;;;21.90;42.10;;;;;;5049058;28;20070;-85
2023/04/20 07:48:01;;;;;;;4.45;2.38;;;22.40;41.50;;;;;;5048728;28;20105;-83
2023/04/20 07:50:26;;;;;;;6.60;2.25;;;22.10;41.40;;;;;;5049484;28;20032;-86
2023/04/20 07:52:52;;;;;;;7.35;2.10;;;22.30;41.20;;;;;;5049037;28;20033;-83
2023/04/20 07:55:18;;;;;;;4.93;2.03;;;22.60;40.40;;;;;;5050131;28;20053;-86
2023/04/20 07:57:44;;;;;;;7.30;2.05;;;23.10;39.50;;;;;;5049461;28;20044;-85
2023/04/20 08:00:11;;;;;;;4.10;2.20;;;23.10;38.80;;;;;;5050979;28;20036;-86
2023/04/20 08:02:37;;;;;;;6.13;1.90;;;23.20;39.40;;;;;;5050204;28;20025;-87
2023/04/20 08:05:03;;;;;;;6.72;2.28;;;23.50;38.30;;;;;;5049665;28;20067;-86
2023/04/20 08:07:29;;;;;;;4.10;2.30;;;23.50;38.40;;;;;;5050231;28;20071;-84
2023/04/20 08:09:55;;;;;;;4.10;2.03;;;23.10;38.30;;;;;;5049172;28;20025;-86
2023/04/20 08:12:21;;;;;;;3.65;2.08;;;22.90;39.20;;;;;;5049065;28;20056;-86
2023/04/20 08:14:47;;;;;;;4.80;1.70;;;23.00;38.80;;;;;;5049728;28;20067;-87
2023/04/20 08:17:13;;;;;;;4.78;2.15;;;23.00;38.70;;;;;;5050571;28;20057;-85
2023/04/20 08:19:38;;;;;;;6.75;2.50;;;23.60;38.80;;;;;;5049518;28;20065;-87
2023/04/20 08:22:04;;;;;;;4.32;2.35;;;23.90;38.30;;;;;;5049230;28;20036;-86
2023/04/20 08:24:30;;;;;;;3.40;1.98;;;23.60;37.80;;;;;;5049872;28;20033;-85
2023/04/20 08:26:58;;;;;;;4.63;2.00;;;23.90;37.70;;;;;;5049864;28;20028;-87
2023/04/20 08:29:23;;;;;;;3.05;2.08;;;24.60;36.30;;;;;;5050575;28;20032;-85
2023/04/20 08:31:50;;;;;;;3.50;2.13;;;24.50;36.50;;;;;;5050235;28;20021;-85
2023/04/20 08:34:16;;;;;;;4.30;1.58;;;24.70;36.70;;;;;;5052393;28;20485;-84
2023/04/20 08:36:42;;;;;;;4.50;1.92;;;24.60;35.10;;;;;;5053977;28;20041;-85
2023/04/20 08:39:11;;;;;;;4.22;1.70;;;24.80;35.70;;;;;;5052689;28;20116;-85
2023/04/20 08:41:37;;;;;;;6.63;1.95;;;24.50;36.10;;;;;;5053591;28;20029;-85
2023/04/20 08:44:03;;;;;;;5.90;2.08;;;24.40;34.80;;;;;;5051735;28;20129;-84
2023/04/20 08:46:29;;;;;;;4.72;1.90;;;24.00;36.00;;;;;;5052444;28;20028;-83
2023/04/20 08:48:56;;;;;;;3.03;1.80;;;24.00;36.10;;;;;;5053201;28;20029;-85
2023/04/20 08:51:23;;;;;;;3.83;1.90;;;23.90;36.40;;;;;;5052326;28;20033;-85
2023/04/20 08:53:48;;;;;;;3.78;1.90;;;23.90;36.40;;;;;;5051833;28;20112;-86
2023/04/20 08:56:14;;;;;;;7.85;1.58;;;23.90;35.80;;;;;;5051678;28;20143;-83
2023/04/20 08:58:41;;;;;;;3.08;1.65;;;23.80;36.20;;;;;;5052727;28;20092;-83
2023/04/20 09:01:10;;;;;;;2.25;1.48;;;24.10;36.00;;;;;;5052039;28;20063;-86
2023/04/20 09:03:38;;;;;;;3.85;1.98;;;24.00;35.20;;;;;;5053158;28;20040;-85
2023/04/20 09:06:05;;;;;;;4.70;1.80;;;24.10;36.00;;;;;;5052377;28;20029;-83
2023/04/20 09:08:38;;;;;;;2.45;1.42;;;24.30;35.40;;;;;;5052308;28;20029;-87
2023/04/20 09:11:04;;;;;;;7.05;2.28;;;24.50;34.40;;;;;;5068260;28;20618;-85
2023/04/20 09:13:30;;;;;;;4.68;2.40;;;24.50;35.00;;;;;;5051405;28;20122;-85
2023/04/20 09:15:56;;;;;;;3.60;1.80;;;24.30;34.80;;;;;;5051340;28;20124;-83
2023/04/20 09:18:25;;;;;;;3.95;1.63;;;24.90;34.00;;;;;;5051041;28;20044;-84
2023/04/20 09:20:50;;;;;;;3.25;1.67;;;25.10;34.70;;;;;;5051582;28;20493;-87
2023/04/20 09:23:18;;;;;;;2.58;1.45;;;24.90;33.00;;;;;;5051726;28;20028;-86
2023/04/20 09:25:51;;;;;;;3.38;2.03;;;24.90;32.90;;;;;;5051761;28;20413;-85
2023/04/20 09:28:17;;;;;;;3.75;1.42;;;24.90;32.50;;;;;;5052280;28;20029;-87
2023/04/20 09:30:44;;;;;;;3.20;1.25;;;24.90;33.80;;;;;;5051458;28;20025;-81
2023/04/20 09:33:11;;;;;;;3.03;1.40;;;25.20;31.90;;;;;;5051979;28;20409;-84
2023/04/20 09:35:39;;;;;;;3.58;1.92;;;25.40;32.50;;;;;;5052869;28;20036;-83
2023/04/20 09:38:06;;;;;;;3.92;1.88;;;25.90;32.90;;;;;;5052317;28;20033;-83
2023/04/20 09:40:32;;;;;;;3.38;1.67;;;26.80;33.00;;;;;;5052723;28;20029;-85
2023/04/20 09:43:06;;;;;;;2.38;1.20;;;27.50;31.10;;;;;;5051013;28;20029;-84
2023/04/20 09:45:32;;;;;;;2.88;1.85;;;27.10;29.70;;;;;;5050093;28;20497;-83
2023/04/20 09:47:58;;;;;;;3.55;2.15;;;26.40;29.50;;;;;;5052246;28;20404;-83
2023/04/20 09:50:24;;;;;;;3.08;1.67;;;25.70;32.40;;;;;;5050835;28;20025;-84
2023/04/20 09:52:51;;;;;;;4.57;1.50;;;26.00;30.80;;;;;;5051560;28;20021;-84
2023/04/20 09:55:18;;;;;;;5.57;1.83;;;25.90;29.00;;;;;;5052125;28;20095;-84
2023/04/20 09:57:44;;;;;;;2.60;1.25;;;25.40;29.50;;;;;;5050996;28;20532;-83
2023/04/20 10:00:11;;;;;;;3.80;1.55;;;24.40;31.70;;;;;;5051782;28;20494;-84
2023/04/20 10:02:37;;;;;;;3.88;1.70;;;23.80;32.40;;;;;;5051105;28;20025;-85
2023/04/20 10:05:03;;;;;;;3.13;1.58;;;23.30;33.40;;;;;;5052040;28;20031;-84
2023/04/20 10:07:31;;;;;;;3.17;1.48;;;23.10;34.40;;;;;;5050865;28;20061;-84
2023/04/20 10:10:11;;;;;;;2.85;1.35;;;23.10;33.90;;;;;;5052104;28;20375;-84
2023/04/20 10:13:06;;;;;;;5.63;1.50;;;23.00;34.10;;;;;;5051393;28;20059;-85
2023/04/20 10:15:40;;;;;;;2.72;1.42;;;22.70;35.00;;;;;;5038883;28;20095;-84
2023/04/20 10:18:22;;;;;;;3.63;1.60;;;22.40;37.10;;;;;;5050748;28;20057;-84
2023/04/20 10:20:48;;;;;;;2.85;1.23;;;22.10;36.00;;;;;;5051940;28;20066;-84
2023/04/20 10:23:15;;;;;;;3.95;1.50;;;21.60;36.40;;;;;;5051006;28;20406;-84
2023/04/20 10:25:41;;;;;;;4.10;1.75;;;21.30;37.80;;;;;;5050988;28;20048;-83
2023/04/20 10:28:08;;;;;;;3.13;1.02;;;20.70;39.00;;;;;;5051273;28;20021;-84
2023/04/20 10:30:35;;;;;;;15.13;3.20;;;20.50;40.30;;;;;;5051840;28;20080;-85
2023/04/20 10:33:07;;;;;;;8.68;1.70;;;20.70;40.10;;;;;;5051057;28;20065;-83
2023/04/20 10:36:00;;;;;;;9.25;1.83;;;20.90;40.40;;;;;;5050925;28;20037;-82
2023/04/20 10:38:34;;;;;;;15.85;2.72;;;21.20;39.90;;;;;;5047958;28;20037;-82
2023/04/20 10:41:10;;;;;;;5.88;1.95;;;21.40;40.40;;;;;;5052701;28;20432;-85
2023/04/20 10:43:40;;;;;;;2.67;1.13;;;21.10;39.50;;;;;;5051239;28;20489;-85
2023/04/20 10:46:23;;;;;;;4.95;1.65;;;21.00;39.50;;;;;;5051081;28;20029;-84
2023/04/20 10:48:52;;;;;;;15.73;2.40;;;21.10;39.40;;;;;;5051801;28;20025;-83
2023/04/20 10:51:18;;;;;;;4.07;1.33;;;20.90;40.40;;;;;;5050849;28;20029;-85
2023/04/20 10:53:44;;;;;;;44.35;4.22;;;20.70;41.30;;;;;;5052386;28;20051;-84
2023/04/20 10:56:10;;;;;;;7.85;1.40;;;20.60;41.80;;;;;;5049323;28;20106;-84
2023/04/20 10:58:36;;;;;;;3.53;1.40;;;20.30;41.90;;;;;;5051425;28;20087;-85
2023/04/20 11:01:05;;;;;;;7.63;1.70;;;20.10;41.90;;;;;;5050842;28;20089;-82
2023/04/20 11:03:33;;;;;;;7.30;1.40;;;20.10;42.90;;;;;;5049598;28;20036;-84
2023/04/20 11:06:00;;;;;;;25.25;2.33;;;20.10;41.10;;;;;;5049616;28;20489;-82
2023/04/20 11:08:39;;;;;;;18.40;2.10;;;19.90;42.30;;;;;;5049501;28;20035;-82
2023/04/20 11:11:05;;;;;;;5.47;1.50;;;19.70;43.20;;;;;;5049760;28;20028;-84
2023/04/20 11:13:32;;;;;;;4.38;1.52;;;20.00;43.90;;;;;;5049900;28;20127;-83
2023/04/20 11:15:58;;;;;;;6.28;1.70;;;20.00;44.70;;;;;;5049006;28;20079;-83
2023/04/20 11:18:24;;;;;;;5.05;1.58;;;19.90;43.20;;;;;;5050103;28;20397;-83
2023/04/20 11:20:54;;;;;;;3.85;1.60;;;19.90;43.20;;;;;;5049501;28;20029;-84
2023/04/20 11:23:21;;;;;;;9.30;1.40;;;19.80;42.90;;;;;;5050709;28;20375;-84
2023/04/20 11:25:54;;;;;;;4.10;1.35;;;19.90;43.50;;;;;;5049412;28;20025;-84
2023/04/20 11:28:21;;;;;;;6.78;1.60;;;20.30;43.70;;;;;;5048864;28;20490;-85
2023/04/20 11:30:48;;;;;;;3.53;1.23;;;20.60;43.90;;;;;;5050107;28;20036;-84
2023/04/20 11:33:14;;;;;;;6.43;1.60;;;20.60;43.20;;;;;;5049481;28;20465;-84
2023/04/20 11:35:42;;;;;;;4.55;1.55;;;20.70;43.30;;;;;;5049272;28;20128;-84
2023/04/20 11:38:08;;;;;;;6.70;1.83;;;20.80;42.60;;;;;;5050263;28;20493;-84
2023/04/20 11:40:34;;;;;;;4.18;1.83;;;20.60;42.70;;;;;;5048272;28;20033;-84
2023/04/20 11:43:01;;;;;;;3.65;1.75;;;20.40;44.10;;;;;;5048285;28;20021;-84
2023/04/20 11:45:31;;;;;;;3.15;1.70;;;20.10;44.60;;;;;;5049028;28;20410;-83
2023/04/20 11:47:57;;;;;;;3.00;1.50;;;20.20;44.40;;;;;;5050887;28;20076;-84
2023/04/20 11:50:22;;;;;;;5.78;1.38;;;20.30;43.80;;;;;;5049333;28;20665;-84
2023/04/20 11:52:48;;;;;;;5.88;1.88;;;20.40;45.20;;;;;;5049850;28;20115;-85
2023/04/20 11:55:14;;;;;;;4.35;1.58;;;20.50;43.60;;;;;;5048815;28;20486;-84
2023/04/20 11:57:39;;;;;;;3.65;1.60;;;20.40;43.40;;;;;;5048533;28;20033;-84
2023/04/20 12:00:06;;;;;;;3.65;1.40;;;20.50;43.50;;;;;;5048782;28;20028;-84
2023/04/20 12:02:32;;;;;;;4.38;1.73;;;20.40;42.60;;;;;;5049089;28;20029;-84
2023/04/20 12:05:00;;;;;;;6.88;1.45;;;20.30;42.00;;;;;;5049302;28;20040;-84
2023/04/20 12:07:26;;;;;;;8.27;1.48;;;20.10;42.70;;;;;;5048778;28;20025;-84
2023/04/20 12:09:52;;;;;;;4.72;1.23;;;20.20;43.40;;;;;;5048510;28;20033;-83
2023/04/20 12:12:18;;;;;;;2.55;1.33;;;20.30;43.30;;;;;;5048971;28;20032;-84
2023/04/20 12:14:44;;;;;;;6.15;1.40;;;20.30;44.60;;;;;;5048843;28;20408;-83
2023/04/20 12:17:12;;;;;;;8.68;1.88;;;20.30;43.30;;;;;;5048643;28;20772;-83
2023/04/20 12:19:38;;;;;;;3.65;1.48;;;20.30;44.10;;;;;;5049410;28;20033;-84
2023/04/20 12:22:03;;;;;;;4.38;1.50;;;20.20;43.00;;;;;;5048748;28;20033;-82
2023/04/20 12:24:29;;;;;;;7.60;1.70;;;20.40;43.70;;;;;;5047959;28;20029;-83
2023/04/20 12:26:56;;;;;;;4.18;1.30;;;20.80;44.70;;;;;;5051180;28;20017;-84
2023/04/20 12:29:22;;;;;;;6.13;1.80;;;20.90;42.00;;;;;;5049374;28;20375;-83
2023/04/20 12:31:47;;;;;;;7.50;2.45;;;20.80;42.00;;;;;;5048976;28;20036;-84
2023/04/20 12:34:13;;;;;;;3.35;1.63;;;20.90;41.00;;;;;;5049467;28;20029;-82
2023/04/20 12:36:39;;;;;;;3.00;1.08;;;20.90;40.90;;;;;;5050706;28;20128;-84
2023/04/20 12:39:04;;;;;;;4.90;1.40;;;20.80;41.50;;;;;;5049567;28;20055;-83
2023/04/20 12:41:30;;;;;;;2.20;1.40;;;20.70;42.40;;;;;;5049430;28;20521;-83
2023/04/20 12:43:56;;;;;;;5.53;1.40;;;20.80;42.40;;;;;;5049106;28;20025;-83
2023/04/20 12:46:21;;;;;;;5.32;1.80;;;20.50;42.40;;;;;;5049923;28;20033;-84
2023/04/20 12:48:47;;;;;;;5.03;1.88;;;20.40;42.70;;;;;;5050979;28;20511;-84
2023/04/20 12:51:14;;;;;;;6.13;1.88;;;20.20;43.00;;;;;;5049124;28;20490;-84
2023/04/20 12:53:40;;;;;;;7.72;2.35;;;19.90;44.40;;;;;;5049087;28;20112;-83
2023/04/20 12:56:06;;;;;;;8.73;1.70;;;19.70;47.60;;;;;;5048372;28;20467;-86
2023/04/20 12:58:32;;;;;;;6.10;2.65;;;19.20;50.90;;;;;;5049356;28;20140;-86